sensor_id;sensor_type;location;lat;lon;timestamp;temperature;humidity
60293;DHT22;52402;52.670;6.750;2022-11-10T00:00:05;9.60;99.90
60293;DHT22;52402;52.670;6.750;2022-11-10T00:02:31;9.60;99.90
60293;DHT22;52402;52.670;6.750;2022-11-10T00:04:57;9.60;99.90
60293;DHT22;52402;52.670;6.750;2022-11-10T00:07:26;9.60;99.90
60293;DHT22;52402;52.670;6.750;2022-11-10T00:09:53;9.60;99.90
60293;DHT22;52402;52.670;6.750;2022-11-10T00:12:20;9.60;99.90
60293;DHT22;52402;52.670;6.750;2022-11-10T00:14:46;9.60;99.90
60293;DHT22;52402;52.670;6.750;2022-11-10T00:17:30;9.60;99.90
60293;DHT22;52402;52.670;6.750;2022-11-10T00:19:56;9.50;99.90
60293;DHT22;52402;52.670;6.750;2022-11-10T00:22:21;9.50;99.90
60293;DHT22;52402;52.670;6.750;2022-11-10T00:24:47;9.50;99.90
60293;DHT22;52402;52.670;6.750;2022-11-10T00:27:13;9.50;99.90
60293;DHT22;52402;52.670;6.750;2022-11-10T00:29:42;9.50;99.90
60293;DHT22;52402;52.670;6.750;2022-11-10T00:32:07;9.50;99.90
60293;DHT22;52402;52.670;6.750;2022-11-10T00:34:33;9.50;99.90
60293;DHT22;52402;52.670;6.750;2022-11-10T00:36:59;9.50;99.90
60293;DHT22;52402;52.670;6.750;2022-11-10T00:39:24;9.50;99.90
60293;DHT22;52402;52.670;6.750;2022-11-10T00:41:50;9.50;99.90
60293;DHT22;52402;52.670;6.750;2022-11-10T00:44:16;9.50;99.90
60293;DHT22;52402;52.670;6.750;2022-11-10T00:46:41;9.50;99.90
60293;DHT22;52402;52.670;6.750;2022-11-10T00:49:07;9.50;99.90
60293;DHT22;52402;52.670;6.750;2022-11-10T00:51:32;9.40;99.90
60293;DHT22;52402;52.670;6.750;2022-11-10T00:53:58;9.40;99.90
60293;DHT22;52402;52.670;6.750;2022-11-10T00:56:24;9.50;99.90
60293;DHT22;52402;52.670;6.750;2022-11-10T00:58:50;9.40;99.90
60293;DHT22;52402;52.670;6.750;2022-11-10T01:01:17;9.40;99.90
60293;DHT22;52402;52.670;6.750;2022-11-10T01:03:43;9.40;99.90
60293;DHT22;52402;52.670;6.750;2022-11-10T01:06:12;9.40;99.90
60293;DHT22;52402;52.670;6.750;2022-11-10T01:08:38;9.40;99.90
60293;DHT22;52402;52.670;6.750;2022-11-10T01:11:16;9.40;99.90
60293;DHT22;52402;52.670;6.750;2022-11-10T01:13:42;9.40;99.90
60293;DHT22;52402;52.670;6.750;2022-11-10T01:16:18;9.40;99.90
60293;DHT22;52402;52.670;6.750;2022-11-10T01:18:49;9.40;99.90
60293;DHT22;52402;52.670;6.750;2022-11-10T01:21:15;9.40;99.90
60293;DHT22;52402;52.670;6.750;2022-11-10T01:23:40;9.30;99.90
60293;DHT22;52402;52.670;6.750;2022-11-10T01:26:08;9.30;99.90
60293;DHT22;52402;52.670;6.750;2022-11-10T01:28:35;9.30;99.90
60293;DHT22;52402;52.670;6.750;2022-11-10T01:31:06;9.30;99.90
60293;DHT22;52402;52.670;6.750;2022-11-10T01:33:32;9.30;99.90
60293;DHT22;52402;52.670;6.750;2022-11-10T01:35:58;9.30;99.90
60293;DHT22;52402;52.670;6.750;2022-11-10T01:38:31;9.30;99.90
60293;DHT22;52402;52.670;6.750;2022-11-10T01:40:58;9.30;99.90
60293;DHT22;52402;52.670;6.750;2022-11-10T01:43:25;9.20;99.90
60293;DHT22;52402;52.670;6.750;2022-11-10T01:46:02;9.20;99.90
60293;DHT22;52402;52.670;6.750;2022-11-10T01:51:12;9.20;99.90
60293;DHT22;52402;52.670;6.750;2022-11-10T01:53:42;9.20;99.90
60293;DHT22;52402;52.670;6.750;2022-11-10T01:56:10;9.20;99.90
60293;DHT22;52402;52.670;6.750;2022-11-10T01:58:38;9.10;99.90
60293;DHT22;52402;52.670;6.750;2022-11-10T02:01:08;9.20;99.90
60293;DHT22;52402;52.670;6.750;2022-11-10T02:03:46;9.20;99.90
60293;DHT22;52402;52.670;6.750;2022-11-10T02:06:15;9.20;99.90
60293;DHT22;52402;52.670;6.750;2022-11-10T02:08:42;9.20;99.90
60293;DHT22;52402;52.670;6.750;2022-11-10T02:11:08;9.10;99.90
60293;DHT22;52402;52.670;6.750;2022-11-10T02:13:34;9.10;99.90
60293;DHT22;52402;52.670;6.750;2022-11-10T02:16:00;9.10;99.90
60293;DHT22;52402;52.670;6.750;2022-11-10T02:18:25;9.10;99.90
60293;DHT22;52402;52.670;6.750;2022-11-10T02:20:51;9.10;99.90
60293;DHT22;52402;52.670;6.750;2022-11-10T02:25:54;9.10;99.90
60293;DHT22;52402;52.670;6.750;2022-11-10T02:28:20;9.10;99.90
60293;DHT22;52402;52.670;6.750;2022-11-10T02:30:46;9.10;99.90
60293;DHT22;52402;52.670;6.750;2022-11-10T02:33:12;9.10;99.90
60293;DHT22;52402;52.670;6.750;2022-11-10T02:35:37;9.10;99.90
60293;DHT22;52402;52.670;6.750;2022-11-10T02:38:03;9.20;99.90
60293;DHT22;52402;52.670;6.750;2022-11-10T02:40:28;9.20;99.90
60293;DHT22;52402;52.670;6.750;2022-11-10T02:42:54;9.20;99.90
60293;DHT22;52402;52.670;6.750;2022-11-10T02:45:20;9.30;99.90
60293;DHT22;52402;52.670;6.750;2022-11-10T02:47:45;9.30;99.90
60293;DHT22;52402;52.670;6.750;2022-11-10T02:50:11;9.20;99.90
60293;DHT22;52402;52.670;6.750;2022-11-10T02:52:37;9.30;99.90
60293;DHT22;52402;52.670;6.750;2022-11-10T02:55:03;9.30;99.90
60293;DHT22;52402;52.670;6.750;2022-11-10T02:57:28;9.20;99.90
60293;DHT22;52402;52.670;6.750;2022-11-10T02:59:54;9.30;99.90
60293;DHT22;52402;52.670;6.750;2022-11-10T03:02:19;9.30;99.90
60293;DHT22;52402;52.670;6.750;2022-11-10T03:04:45;9.30;99.90
60293;DHT22;52402;52.670;6.750;2022-11-10T03:07:11;9.30;99.90
60293;DHT22;52402;52.670;6.750;2022-11-10T03:09:36;9.30;99.90
60293;DHT22;52402;52.670;6.750;2022-11-10T03:12:02;9.30;99.90
60293;DHT22;52402;52.670;6.750;2022-11-10T03:14:27;9.30;99.90
60293;DHT22;52402;52.670;6.750;2022-11-10T03:16:53;9.30;99.90
60293;DHT22;52402;52.670;6.750;2022-11-10T03:19:18;9.30;99.90
60293;DHT22;52402;52.670;6.750;2022-11-10T03:21:44;9.20;99.90
60293;DHT22;52402;52.670;6.750;2022-11-10T03:24:10;9.20;99.90
60293;DHT22;52402;52.670;6.750;2022-11-10T03:26:35;9.30;99.90
60293;DHT22;52402;52.670;6.750;2022-11-10T03:29:01;9.30;99.90
60293;DHT22;52402;52.670;6.750;2022-11-10T03:31:26;9.30;99.90
60293;DHT22;52402;52.670;6.750;2022-11-10T03:33:52;9.30;99.90
60293;DHT22;52402;52.670;6.750;2022-11-10T03:36:17;9.30;99.90
60293;DHT22;52402;52.670;6.750;2022-11-10T03:38:43;9.30;99.90
60293;DHT22;52402;52.670;6.750;2022-11-10T03:41:08;9.30;99.90
60293;DHT22;52402;52.670;6.750;2022-11-10T03:43:34;9.30;99.90
60293;DHT22;52402;52.670;6.750;2022-11-10T03:46:00;9.30;99.90
60293;DHT22;52402;52.670;6.750;2022-11-10T03:48:25;9.30;99.90
60293;DHT22;52402;52.670;6.750;2022-11-10T03:50:51;9.30;99.90
60293;DHT22;52402;52.670;6.750;2022-11-10T03:53:16;9.30;99.90
60293;DHT22;52402;52.670;6.750;2022-11-10T03:55:42;9.30;99.90
60293;DHT22;52402;52.670;6.750;2022-11-10T03:58:07;9.30;99.90
60293;DHT22;52402;52.670;6.750;2022-11-10T04:00:33;9.30;99.90
60293;DHT22;52402;52.670;6.750;2022-11-10T04:02:58;9.30;99.90
60293;DHT22;52402;52.670;6.750;2022-11-10T04:05:25;9.30;99.90
60293;DHT22;52402;52.670;6.750;2022-11-10T04:08:14;9.20;99.90
60293;DHT22;52402;52.670;6.750;2022-11-10T04:10:59;9.20;99.90
60293;DHT22;52402;52.670;6.750;2022-11-10T04:13:24;9.20;99.90
60293;DHT22;52402;52.670;6.750;2022-11-10T04:16:25;9.20;99.90
60293;DHT22;52402;52.670;6.750;2022-11-10T04:18:51;9.20;99.90
60293;DHT22;52402;52.670;6.750;2022-11-10T04:21:16;9.20;99.90
60293;DHT22;52402;52.670;6.750;2022-11-10T04:23:42;9.30;99.90
60293;DHT22;52402;52.670;6.750;2022-11-10T04:26:09;9.30;99.90
60293;DHT22;52402;52.670;6.750;2022-11-10T04:28:56;9.30;99.90
60293;DHT22;52402;52.670;6.750;2022-11-10T04:31:24;9.30;99.90
60293;DHT22;52402;52.670;6.750;2022-11-10T04:33:50;9.30;99.90
60293;DHT22;52402;52.670;6.750;2022-11-10T04:36:19;9.30;99.90
60293;DHT22;52402;52.670;6.750;2022-11-10T04:38:45;9.30;99.90
60293;DHT22;52402;52.670;6.750;2022-11-10T04:41:11;9.30;99.90
60293;DHT22;52402;52.670;6.750;2022-11-10T04:43:37;9.30;99.90
60293;DHT22;52402;52.670;6.750;2022-11-10T04:46:04;9.30;99.90
60293;DHT22;52402;52.670;6.750;2022-11-10T04:48:31;9.40;99.90
60293;DHT22;52402;52.670;6.750;2022-11-10T04:51:01;9.40;99.90
60293;DHT22;52402;52.670;6.750;2022-11-10T04:53:27;9.40;99.90
60293;DHT22;52402;52.670;6.750;2022-11-10T04:55:53;9.40;99.90
60293;DHT22;52402;52.670;6.750;2022-11-10T04:58:18;9.40;99.90
60293;DHT22;52402;52.670;6.750;2022-11-10T05:00:44;9.50;99.90
60293;DHT22;52402;52.670;6.750;2022-11-10T05:03:11;9.40;99.90
60293;DHT22;52402;52.670;6.750;2022-11-10T05:05:37;9.50;99.90
60293;DHT22;52402;52.670;6.750;2022-11-10T05:08:04;9.50;99.90
60293;DHT22;52402;52.670;6.750;2022-11-10T05:10:30;9.50;99.90
60293;DHT22;52402;52.670;6.750;2022-11-10T05:12:56;9.50;99.90
60293;DHT22;52402;52.670;6.750;2022-11-10T05:15:23;9.50;99.90
60293;DHT22;52402;52.670;6.750;2022-11-10T05:17:50;9.50;99.90
60293;DHT22;52402;52.670;6.750;2022-11-10T05:20:20;9.50;99.90
60293;DHT22;52402;52.670;6.750;2022-11-10T05:22:47;9.50;99.90
60293;DHT22;52402;52.670;6.750;2022-11-10T05:25:34;9.50;99.90
60293;DHT22;52402;52.670;6.750;2022-11-10T05:28:01;9.50;99.90
60293;DHT22;52402;52.670;6.750;2022-11-10T05:30:27;9.50;99.90
60293;DHT22;52402;52.670;6.750;2022-11-10T05:32:52;9.50;99.90
60293;DHT22;52402;52.670;6.750;2022-11-10T05:35:18;9.50;99.90
60293;DHT22;52402;52.670;6.750;2022-11-10T05:37:43;9.50;99.90
60293;DHT22;52402;52.670;6.750;2022-11-10T05:40:09;9.50;99.90
60293;DHT22;52402;52.670;6.750;2022-11-10T05:42:45;9.50;99.90
60293;DHT22;52402;52.670;6.750;2022-11-10T05:45:12;9.50;99.90
60293;DHT22;52402;52.670;6.750;2022-11-10T05:47:38;9.50;99.90
60293;DHT22;52402;52.670;6.750;2022-11-10T05:50:05;9.50;99.90
60293;DHT22;52402;52.670;6.750;2022-11-10T05:52:31;9.50;99.90
60293;DHT22;52402;52.670;6.750;2022-11-10T05:54:56;9.60;99.90
60293;DHT22;52402;52.670;6.750;2022-11-10T05:57:22;9.50;99.90
60293;DHT22;52402;52.670;6.750;2022-11-10T05:59:48;9.50;99.90
60293;DHT22;52402;52.670;6.750;2022-11-10T06:02:13;9.50;99.90
60293;DHT22;52402;52.670;6.750;2022-11-10T06:04:39;9.60;99.90
60293;DHT22;52402;52.670;6.750;2022-11-10T06:07:05;9.60;99.90
60293;DHT22;52402;52.670;6.750;2022-11-10T06:09:32;9.60;99.90
60293;DHT22;52402;52.670;6.750;2022-11-10T06:11:58;9.60;99.90
60293;DHT22;52402;52.670;6.750;2022-11-10T06:14:24;9.60;99.90
60293;DHT22;52402;52.670;6.750;2022-11-10T06:16:49;9.60;99.90
60293;DHT22;52402;52.670;6.750;2022-11-10T06:19:15;9.60;99.90
60293;DHT22;52402;52.670;6.750;2022-11-10T06:21:41;9.60;99.90
60293;DHT22;52402;52.670;6.750;2022-11-10T06:24:06;9.60;99.90
60293;DHT22;52402;52.670;6.750;2022-11-10T06:26:32;9.60;99.90
60293;DHT22;52402;52.670;6.750;2022-11-10T06:28:58;9.60;99.90
60293;DHT22;52402;52.670;6.750;2022-11-10T06:31:23;9.70;99.90
60293;DHT22;52402;52.670;6.750;2022-11-10T06:33:49;9.60;99.90
60293;DHT22;52402;52.670;6.750;2022-11-10T06:36:15;9.60;99.90
60293;DHT22;52402;52.670;6.750;2022-11-10T06:38:40;9.60;99.90
60293;DHT22;52402;52.670;6.750;2022-11-10T06:41:06;9.60;99.90
60293;DHT22;52402;52.670;6.750;2022-11-10T06:43:31;9.60;99.90
60293;DHT22;52402;52.670;6.750;2022-11-10T06:45:57;9.60;99.90
60293;DHT22;52402;52.670;6.750;2022-11-10T06:48:23;9.60;99.90
60293;DHT22;52402;52.670;6.750;2022-11-10T06:50:49;9.60;99.90
60293;DHT22;52402;52.670;6.750;2022-11-10T06:53:15;9.60;99.90
60293;DHT22;52402;52.670;6.750;2022-11-10T06:55:41;9.60;99.90
60293;DHT22;52402;52.670;6.750;2022-11-10T06:58:08;9.60;99.90
60293;DHT22;52402;52.670;6.750;2022-11-10T07:00:33;9.50;99.90
60293;DHT22;52402;52.670;6.750;2022-11-10T07:03:00;9.60;99.90
60293;DHT22;52402;52.670;6.750;2022-11-10T07:05:27;9.60;99.90
60293;DHT22;52402;52.670;6.750;2022-11-10T07:07:52;9.60;99.90
60293;DHT22;52402;52.670;6.750;2022-11-10T07:10:18;9.50;99.90
60293;DHT22;52402;52.670;6.750;2022-11-10T07:12:43;9.50;99.90
60293;DHT22;52402;52.670;6.750;2022-11-10T07:15:10;9.50;99.90
60293;DHT22;52402;52.670;6.750;2022-11-10T07:17:40;9.60;99.90
60293;DHT22;52402;52.670;6.750;2022-11-10T07:20:07;9.50;99.90
60293;DHT22;52402;52.670;6.750;2022-11-10T07:22:32;9.50;99.90
60293;DHT22;52402;52.670;6.750;2022-11-10T07:24:58;9.50;99.90
60293;DHT22;52402;52.670;6.750;2022-11-10T07:27:24;9.50;99.90
60293;DHT22;52402;52.670;6.750;2022-11-10T07:29:49;9.50;99.90
60293;DHT22;52402;52.670;6.750;2022-11-10T07:32:15;9.60;99.90
60293;DHT22;52402;52.670;6.750;2022-11-10T07:34:40;9.60;99.90
60293;DHT22;52402;52.670;6.750;2022-11-10T07:37:06;9.70;99.90
60293;DHT22;52402;52.670;6.750;2022-11-10T07:39:32;9.70;99.90
60293;DHT22;52402;52.670;6.750;2022-11-10T07:41:57;9.70;99.90
60293;DHT22;52402;52.670;6.750;2022-11-10T07:44:23;9.80;99.90
60293;DHT22;52402;52.670;6.750;2022-11-10T07:46:48;9.80;99.90
60293;DHT22;52402;52.670;6.750;2022-11-10T07:49:14;9.90;99.90
60293;DHT22;52402;52.670;6.750;2022-11-10T07:51:41;10.00;99.90
60293;DHT22;52402;52.670;6.750;2022-11-10T07:54:07;10.00;99.90
60293;DHT22;52402;52.670;6.750;2022-11-10T07:56:33;10.00;99.90
60293;DHT22;52402;52.670;6.750;2022-11-10T07:58:58;10.00;99.90
60293;DHT22;52402;52.670;6.750;2022-11-10T08:01:24;10.00;99.90
60293;DHT22;52402;52.670;6.750;2022-11-10T08:03:49;10.00;99.90
60293;DHT22;52402;52.670;6.750;2022-11-10T08:06:15;10.10;99.90
60293;DHT22;52402;52.670;6.750;2022-11-10T08:08:41;10.10;99.90
60293;DHT22;52402;52.670;6.750;2022-11-10T08:11:06;10.10;99.90
60293;DHT22;52402;52.670;6.750;2022-11-10T08:13:32;10.10;99.90
60293;DHT22;52402;52.670;6.750;2022-11-10T08:15:58;10.10;99.90
60293;DHT22;52402;52.670;6.750;2022-11-10T08:18:24;10.10;99.90
60293;DHT22;52402;52.670;6.750;2022-11-10T08:21:03;10.10;99.90
60293;DHT22;52402;52.670;6.750;2022-11-10T08:23:29;10.20;99.90
60293;DHT22;52402;52.670;6.750;2022-11-10T08:25:59;10.20;99.90
60293;DHT22;52402;52.670;6.750;2022-11-10T08:28:25;10.10;99.90
60293;DHT22;52402;52.670;6.750;2022-11-10T08:30:52;10.20;99.90
60293;DHT22;52402;52.670;6.750;2022-11-10T08:33:33;10.20;99.90
60293;DHT22;52402;52.670;6.750;2022-11-10T08:36:00;10.30;99.90
60293;DHT22;52402;52.670;6.750;2022-11-10T08:38:26;10.30;99.90
60293;DHT22;52402;52.670;6.750;2022-11-10T08:40:51;10.40;99.90
60293;DHT22;52402;52.670;6.750;2022-11-10T08:43:17;10.50;99.90
60293;DHT22;52402;52.670;6.750;2022-11-10T08:45:44;10.60;99.90
60293;DHT22;52402;52.670;6.750;2022-11-10T08:48:13;10.70;99.90
60293;DHT22;52402;52.670;6.750;2022-11-10T08:50:39;10.80;99.90
60293;DHT22;52402;52.670;6.750;2022-11-10T08:53:13;10.90;99.90
60293;DHT22;52402;52.670;6.750;2022-11-10T08:55:40;10.90;99.90
60293;DHT22;52402;52.670;6.750;2022-11-10T08:58:08;11.00;99.90
60293;DHT22;52402;52.670;6.750;2022-11-10T09:00:35;11.00;99.90
60293;DHT22;52402;52.670;6.750;2022-11-10T09:03:15;11.10;99.90
60293;DHT22;52402;52.670;6.750;2022-11-10T09:05:42;11.10;99.90
60293;DHT22;52402;52.670;6.750;2022-11-10T09:08:08;11.10;99.90
60293;DHT22;52402;52.670;6.750;2022-11-10T09:10:36;11.10;99.90
60293;DHT22;52402;52.670;6.750;2022-11-10T09:13:02;11.20;99.90
60293;DHT22;52402;52.670;6.750;2022-11-10T09:15:29;11.10;99.90
60293;DHT22;52402;52.670;6.750;2022-11-10T09:17:59;11.20;99.90
60293;DHT22;52402;52.670;6.750;2022-11-10T09:20:27;11.20;99.90
60293;DHT22;52402;52.670;6.750;2022-11-10T09:22:53;11.20;99.90
60293;DHT22;52402;52.670;6.750;2022-11-10T09:25:19;11.20;99.90
60293;DHT22;52402;52.670;6.750;2022-11-10T09:27:45;11.30;99.90
60293;DHT22;52402;52.670;6.750;2022-11-10T09:30:11;11.30;99.90
60293;DHT22;52402;52.670;6.750;2022-11-10T09:32:37;11.30;99.90
60293;DHT22;52402;52.670;6.750;2022-11-10T09:35:04;11.40;99.90
60293;DHT22;52402;52.670;6.750;2022-11-10T09:37:30;11.40;99.90
60293;DHT22;52402;52.670;6.750;2022-11-10T09:39:56;11.50;99.90
60293;DHT22;52402;52.670;6.750;2022-11-10T09:42:30;11.50;99.90
60293;DHT22;52402;52.670;6.750;2022-11-10T09:47:54;11.60;99.90
60293;DHT22;52402;52.670;6.750;2022-11-10T09:50:36;11.60;99.90
60293;DHT22;52402;52.670;6.750;2022-11-10T09:53:40;11.70;99.90
60293;DHT22;52402;52.670;6.750;2022-11-10T09:56:39;11.80;99.90
60293;DHT22;52402;52.670;6.750;2022-11-10T09:59:30;11.90;99.90
60293;DHT22;52402;52.670;6.750;2022-11-10T10:14:12;12.20;99.90
60293;DHT22;52402;52.670;6.750;2022-11-10T10:16:53;12.20;99.90
60293;DHT22;52402;52.670;6.750;2022-11-10T10:24:28;12.50;99.90
60293;DHT22;52402;52.670;6.750;2022-11-10T10:26:58;12.50;99.90
60293;DHT22;52402;52.670;6.750;2022-11-10T10:29:34;12.60;99.90
60293;DHT22;52402;52.670;6.750;2022-11-10T10:32:02;12.60;99.90
60293;DHT22;52402;52.670;6.750;2022-11-10T10:34:42;12.70;99.90
60293;DHT22;52402;52.670;6.750;2022-11-10T10:39:49;12.90;99.90
60293;DHT22;52402;52.670;6.750;2022-11-10T10:42:27;12.90;99.90
60293;DHT22;52402;52.670;6.750;2022-11-10T10:45:20;13.00;99.90
60293;DHT22;52402;52.670;6.750;2022-11-10T10:47:49;13.00;99.90
60293;DHT22;52402;52.670;6.750;2022-11-10T10:53:10;13.00;99.90
60293;DHT22;52402;52.670;6.750;2022-11-10T10:55:37;13.00;99.90
60293;DHT22;52402;52.670;6.750;2022-11-10T10:58:08;13.00;99.90
60293;DHT22;52402;52.670;6.750;2022-11-10T11:00:44;13.10;99.90
60293;DHT22;52402;52.670;6.750;2022-11-10T11:03:18;13.20;99.90
60293;DHT22;52402;52.670;6.750;2022-11-10T11:06:03;13.20;99.90
60293;DHT22;52402;52.670;6.750;2022-11-10T11:08:30;13.20;99.90
60293;DHT22;52402;52.670;6.750;2022-11-10T11:10:55;13.10;99.90
60293;DHT22;52402;52.670;6.750;2022-11-10T11:13:30;13.20;99.90
60293;DHT22;52402;52.670;6.750;2022-11-10T11:15:57;13.10;99.90
60293;DHT22;52402;52.670;6.750;2022-11-10T11:18:24;13.10;99.90
60293;DHT22;52402;52.670;6.750;2022-11-10T11:21:23;13.10;99.90
60293;DHT22;52402;52.670;6.750;2022-11-10T11:27:00;13.30;99.90
60293;DHT22;52402;52.670;6.750;2022-11-10T11:35:17;13.60;99.90
60293;DHT22;52402;52.670;6.750;2022-11-10T11:38:06;13.60;99.90
60293;DHT22;52402;52.670;6.750;2022-11-10T11:40:46;13.70;99.90
60293;DHT22;52402;52.670;6.750;2022-11-10T11:46:10;13.90;99.90
60293;DHT22;52402;52.670;6.750;2022-11-10T11:51:55;14.10;99.90
60293;DHT22;52402;52.670;6.750;2022-11-10T11:54:27;14.10;99.90
60293;DHT22;52402;52.670;6.750;2022-11-10T11:57:16;14.20;99.90
60293;DHT22;52402;52.670;6.750;2022-11-10T12:05:33;14.30;99.90
60293;DHT22;52402;52.670;6.750;2022-11-10T12:11:03;14.30;99.90
60293;DHT22;52402;52.670;6.750;2022-11-10T12:21:54;14.40;99.90
60293;DHT22;52402;52.670;6.750;2022-11-10T12:24:28;14.40;99.90
60293;DHT22;52402;52.670;6.750;2022-11-10T12:27:13;14.30;99.90
60293;DHT22;52402;52.670;6.750;2022-11-10T12:32:25;14.40;99.90
60293;DHT22;52402;52.670;6.750;2022-11-10T12:35:00;14.40;99.90
60293;DHT22;52402;52.670;6.750;2022-11-10T12:37:36;14.40;99.90
60293;DHT22;52402;52.670;6.750;2022-11-10T12:40:29;14.40;99.90
60293;DHT22;52402;52.670;6.750;2022-11-10T12:43:00;14.40;99.90
60293;DHT22;52402;52.670;6.750;2022-11-10T12:45:48;14.40;99.90
60293;DHT22;52402;52.670;6.750;2022-11-10T12:48:16;14.40;99.90
60293;DHT22;52402;52.670;6.750;2022-11-10T12:53:41;14.40;99.90
60293;DHT22;52402;52.670;6.750;2022-11-10T12:56:30;14.40;99.90
60293;DHT22;52402;52.670;6.750;2022-11-10T13:01:45;14.30;99.90
60293;DHT22;52402;52.670;6.750;2022-11-10T13:04:13;14.30;99.90
60293;DHT22;52402;52.670;6.750;2022-11-10T13:06:48;14.30;99.90
60293;DHT22;52402;52.670;6.750;2022-11-10T13:09:23;14.30;99.90
60293;DHT22;52402;52.670;6.750;2022-11-10T13:12:21;14.30;99.90
60293;DHT22;52402;52.670;6.750;2022-11-10T13:14:48;14.30;99.90
60293;DHT22;52402;52.670;6.750;2022-11-10T13:21:07;14.30;99.90
60293;DHT22;52402;52.670;6.750;2022-11-10T13:23:31;14.20;99.90
60293;DHT22;52402;52.670;6.750;2022-11-10T13:26:08;14.20;99.90
60293;DHT22;52402;52.670;6.750;2022-11-10T13:36:40;14.10;99.90
60293;DHT22;52402;52.670;6.750;2022-11-10T13:44:25;14.00;99.90
60293;DHT22;52402;52.670;6.750;2022-11-10T13:52:18;14.00;99.90
60293;DHT22;52402;52.670;6.750;2022-11-10T13:57:37;13.90;99.90
60293;DHT22;52402;52.670;6.750;2022-11-10T14:00:29;13.90;99.90
60293;DHT22;52402;52.670;6.750;2022-11-10T14:03:05;13.90;99.90
60293;DHT22;52402;52.670;6.750;2022-11-10T14:08:18;13.80;99.90
60293;DHT22;52402;52.670;6.750;2022-11-10T14:11:10;13.80;99.90
60293;DHT22;52402;52.670;6.750;2022-11-10T14:13:44;13.80;99.90
60293;DHT22;52402;52.670;6.750;2022-11-10T14:16:17;13.80;99.90
60293;DHT22;52402;52.670;6.750;2022-11-10T14:18:51;13.80;99.90
60293;DHT22;52402;52.670;6.750;2022-11-10T14:21:41;13.80;99.90
60293;DHT22;52402;52.670;6.750;2022-11-10T14:24:25;13.70;99.90
60293;DHT22;52402;52.670;6.750;2022-11-10T14:26:53;13.70;99.90
60293;DHT22;52402;52.670;6.750;2022-11-10T14:29:31;13.70;99.90
60293;DHT22;52402;52.670;6.750;2022-11-10T14:32:00;13.70;99.90
60293;DHT22;52402;52.670;6.750;2022-11-10T14:34:27;13.70;99.90
60293;DHT22;52402;52.670;6.750;2022-11-10T14:36:56;13.70;99.90
60293;DHT22;52402;52.670;6.750;2022-11-10T14:39:40;13.70;99.90
60293;DHT22;52402;52.670;6.750;2022-11-10T14:42:06;13.80;99.90
60293;DHT22;52402;52.670;6.750;2022-11-10T14:44:32;13.70;99.90
60293;DHT22;52402;52.670;6.750;2022-11-10T14:52:39;13.70;99.90
60293;DHT22;52402;52.670;6.750;2022-11-10T14:55:20;13.70;99.90
60293;DHT22;52402;52.670;6.750;2022-11-10T14:57:53;13.70;99.90
60293;DHT22;52402;52.670;6.750;2022-11-10T15:00:25;13.60;99.90
60293;DHT22;52402;52.670;6.750;2022-11-10T15:02:57;13.60;99.90
60293;DHT22;52402;52.670;6.750;2022-11-10T15:05:24;13.60;99.90
60293;DHT22;52402;52.670;6.750;2022-11-10T15:07:54;13.60;99.90
60293;DHT22;52402;52.670;6.750;2022-11-10T15:13:17;13.60;99.90
60293;DHT22;52402;52.670;6.750;2022-11-10T15:15:43;13.60;99.90
60293;DHT22;52402;52.670;6.750;2022-11-10T15:18:24;13.60;99.90
60293;DHT22;52402;52.670;6.750;2022-11-10T15:21:08;13.60;99.90
60293;DHT22;52402;52.670;6.750;2022-11-10T15:23:37;13.60;99.90
60293;DHT22;52402;52.670;6.750;2022-11-10T15:26:04;13.60;99.90
60293;DHT22;52402;52.670;6.750;2022-11-10T15:28:33;13.50;99.90
60293;DHT22;52402;52.670;6.750;2022-11-10T15:31:32;13.50;99.90
60293;DHT22;52402;52.670;6.750;2022-11-10T15:34:00;13.50;99.90
60293;DHT22;52402;52.670;6.750;2022-11-10T15:36:28;13.50;99.90
60293;DHT22;52402;52.670;6.750;2022-11-10T15:41:45;13.50;99.90
60293;DHT22;52402;52.670;6.750;2022-11-10T15:44:21;13.50;99.90
60293;DHT22;52402;52.670;6.750;2022-11-10T15:46:51;13.50;99.90
60293;DHT22;52402;52.670;6.750;2022-11-10T15:49:28;13.40;99.90
60293;DHT22;52402;52.670;6.750;2022-11-10T15:52:09;13.40;99.90
60293;DHT22;52402;52.670;6.750;2022-11-10T15:54:36;13.40;99.90
60293;DHT22;52402;52.670;6.750;2022-11-10T15:57:02;13.40;99.90
60293;DHT22;52402;52.670;6.750;2022-11-10T15:59:28;13.40;99.90
60293;DHT22;52402;52.670;6.750;2022-11-10T16:01:54;13.40;99.90
60293;DHT22;52402;52.670;6.750;2022-11-10T16:04:20;13.40;99.90
60293;DHT22;52402;52.670;6.750;2022-11-10T16:06:46;13.30;99.90
60293;DHT22;52402;52.670;6.750;2022-11-10T16:09:11;13.30;99.90
60293;DHT22;52402;52.670;6.750;2022-11-10T16:11:39;13.30;99.90
60293;DHT22;52402;52.670;6.750;2022-11-10T16:14:12;13.30;99.90
60293;DHT22;52402;52.670;6.750;2022-11-10T16:16:40;13.30;99.90
60293;DHT22;52402;52.670;6.750;2022-11-10T16:19:09;13.30;99.90
60293;DHT22;52402;52.670;6.750;2022-11-10T16:21:35;13.30;99.90
60293;DHT22;52402;52.670;6.750;2022-11-10T16:24:01;13.20;99.90
60293;DHT22;52402;52.670;6.750;2022-11-10T16:26:27;13.20;99.90
60293;DHT22;52402;52.670;6.750;2022-11-10T16:28:53;13.20;99.90
60293;DHT22;52402;52.670;6.750;2022-11-10T16:31:19;13.20;99.90
60293;DHT22;52402;52.670;6.750;2022-11-10T16:33:47;13.20;99.90
60293;DHT22;52402;52.670;6.750;2022-11-10T16:36:25;13.20;99.90
60293;DHT22;52402;52.670;6.750;2022-11-10T16:38:53;13.20;99.90
60293;DHT22;52402;52.670;6.750;2022-11-10T16:41:20;13.10;99.90
60293;DHT22;52402;52.670;6.750;2022-11-10T16:43:45;13.10;99.90
60293;DHT22;52402;52.670;6.750;2022-11-10T16:46:32;13.10;99.90
60293;DHT22;52402;52.670;6.750;2022-11-10T16:49:01;13.10;99.90
60293;DHT22;52402;52.670;6.750;2022-11-10T16:51:49;13.10;99.90
60293;DHT22;52402;52.670;6.750;2022-11-10T16:54:15;13.00;99.90
60293;DHT22;52402;52.670;6.750;2022-11-10T16:56:41;13.10;99.90
60293;DHT22;52402;52.670;6.750;2022-11-10T16:59:07;13.00;99.90
60293;DHT22;52402;52.670;6.750;2022-11-10T17:01:35;13.00;99.90
60293;DHT22;52402;52.670;6.750;2022-11-10T17:04:05;13.00;99.90
60293;DHT22;52402;52.670;6.750;2022-11-10T17:06:32;13.00;99.90
60293;DHT22;52402;52.670;6.750;2022-11-10T17:09:05;13.00;99.90
60293;DHT22;52402;52.670;6.750;2022-11-10T17:11:32;13.00;99.90
60293;DHT22;52402;52.670;6.750;2022-11-10T17:13:57;12.90;99.90
60293;DHT22;52402;52.670;6.750;2022-11-10T17:16:27;12.90;99.90
60293;DHT22;52402;52.670;6.750;2022-11-10T17:18:54;12.80;99.90
60293;DHT22;52402;52.670;6.750;2022-11-10T17:21:21;12.70;99.90
60293;DHT22;52402;52.670;6.750;2022-11-10T17:23:47;12.70;99.90
60293;DHT22;52402;52.670;6.750;2022-11-10T17:26:17;12.60;99.90
60293;DHT22;52402;52.670;6.750;2022-11-10T17:28:43;12.50;99.90
60293;DHT22;52402;52.670;6.750;2022-11-10T17:31:09;12.50;99.90
60293;DHT22;52402;52.670;6.750;2022-11-10T17:33:35;12.50;99.90
60293;DHT22;52402;52.670;6.750;2022-11-10T17:36:01;12.40;99.90
60293;DHT22;52402;52.670;6.750;2022-11-10T17:38:30;12.40;99.90
60293;DHT22;52402;52.670;6.750;2022-11-10T17:40:57;12.40;99.90